sensor_id;sensor_type;location;lat;lon;timestamp;temperature;humidity
4602;DHT22;2313;48.552;9.370;2023-12-14T00:01:43;5.50;99.90
4602;DHT22;2313;48.552;9.370;2023-12-14T00:04:11;5.50;99.90
4602;DHT22;2313;48.552;9.370;2023-12-14T00:06:37;5.50;99.90
4602;DHT22;2313;48.552;9.370;2023-12-14T00:09:02;5.60;99.90
4602;DHT22;2313;48.552;9.370;2023-12-14T00:11:28;5.60;99.90
4602;DHT22;2313;48.552;9.370;2023-12-14T00:13:54;5.60;99.90
4602;DHT22;2313;48.552;9.370;2023-12-14T00:16:19;5.60;99.90
4602;DHT22;2313;48.552;9.370;2023-12-14T00:18:45;5.60;99.90
4602;DHT22;2313;48.552;9.370;2023-12-14T00:21:10;5.60;99.90
4602;DHT22;2313;48.552;9.370;2023-12-14T00:23:36;5.70;99.90
4602;DHT22;2313;48.552;9.370;2023-12-14T00:26:01;5.70;99.90
4602;DHT22;2313;48.552;9.370;2023-12-14T00:28:27;5.80;99.90
4602;DHT22;2313;48.552;9.370;2023-12-14T00:30:53;5.70;99.90
4602;DHT22;2313;48.552;9.370;2023-12-14T00:33:18;5.80;99.90
4602;DHT22;2313;48.552;9.370;2023-12-14T00:35:44;5.80;99.90
4602;DHT22;2313;48.552;9.370;2023-12-14T00:38:10;5.80;99.90
4602;DHT22;2313;48.552;9.370;2023-12-14T00:40:35;5.90;99.90
4602;DHT22;2313;48.552;9.370;2023-12-14T00:43:01;5.90;99.90
4602;DHT22;2313;48.552;9.370;2023-12-14T00:45:26;5.90;99.90
4602;DHT22;2313;48.552;9.370;2023-12-14T00:47:52;5.90;99.90
4602;DHT22;2313;48.552;9.370;2023-12-14T00:50:17;5.90;99.90
4602;DHT22;2313;48.552;9.370;2023-12-14T00:52:43;5.90;99.90
4602;DHT22;2313;48.552;9.370;2023-12-14T00:55:08;5.90;99.90
4602;DHT22;2313;48.552;9.370;2023-12-14T00:57:34;6.00;99.90
4602;DHT22;2313;48.552;9.370;2023-12-14T01:00:00;6.00;99.90
4602;DHT22;2313;48.552;9.370;2023-12-14T01:02:25;6.00;99.90
4602;DHT22;2313;48.552;9.370;2023-12-14T01:04:51;6.00;99.90
4602;DHT22;2313;48.552;9.370;2023-12-14T01:07:16;6.00;99.90
4602;DHT22;2313;48.552;9.370;2023-12-14T01:09:42;6.00;99.90
4602;DHT22;2313;48.552;9.370;2023-12-14T01:12:08;6.00;99.90
4602;DHT22;2313;48.552;9.370;2023-12-14T01:14:33;6.00;99.90
4602;DHT22;2313;48.552;9.370;2023-12-14T01:17:00;6.00;99.90
4602;DHT22;2313;48.552;9.370;2023-12-14T01:19:25;6.00;99.90
4602;DHT22;2313;48.552;9.370;2023-12-14T01:21:51;6.00;99.90
4602;DHT22;2313;48.552;9.370;2023-12-14T01:24:17;6.00;99.90
4602;DHT22;2313;48.552;9.370;2023-12-14T01:26:42;6.00;99.90
4602;DHT22;2313;48.552;9.370;2023-12-14T01:29:08;6.00;99.90
4602;DHT22;2313;48.552;9.370;2023-12-14T01:31:34;6.00;99.90
4602;DHT22;2313;48.552;9.370;2023-12-14T01:33:59;6.00;99.90
4602;DHT22;2313;48.552;9.370;2023-12-14T01:36:26;6.00;99.90
4602;DHT22;2313;48.552;9.370;2023-12-14T01:38:52;6.00;99.90
4602;DHT22;2313;48.552;9.370;2023-12-14T01:41:18;6.00;99.90
4602;DHT22;2313;48.552;9.370;2023-12-14T01:43:44;6.00;99.90
4602;DHT22;2313;48.552;9.370;2023-12-14T01:46:10;5.90;99.90
4602;DHT22;2313;48.552;9.370;2023-12-14T01:48:35;6.00;99.90
4602;DHT22;2313;48.552;9.370;2023-12-14T01:51:01;6.00;99.90
4602;DHT22;2313;48.552;9.370;2023-12-14T01:53:27;6.00;99.90
4602;DHT22;2313;48.552;9.370;2023-12-14T01:55:52;6.00;99.90
4602;DHT22;2313;48.552;9.370;2023-12-14T01:58:18;6.00;99.90
4602;DHT22;2313;48.552;9.370;2023-12-14T02:00:50;6.10;99.90
4602;DHT22;2313;48.552;9.370;2023-12-14T02:03:18;6.10;99.90
4602;DHT22;2313;48.552;9.370;2023-12-14T02:05:44;6.10;99.90
4602;DHT22;2313;48.552;9.370;2023-12-14T02:08:09;6.10;99.90
4602;DHT22;2313;48.552;9.370;2023-12-14T02:10:35;6.10;99.90
4602;DHT22;2313;48.552;9.370;2023-12-14T02:13:04;6.10;99.90
4602;DHT22;2313;48.552;9.370;2023-12-14T02:15:29;6.10;99.90
4602;DHT22;2313;48.552;9.370;2023-12-14T02:17:55;6.10;99.90
4602;DHT22;2313;48.552;9.370;2023-12-14T02:20:21;6.10;99.90
4602;DHT22;2313;48.552;9.370;2023-12-14T02:22:53;6.10;99.90
4602;DHT22;2313;48.552;9.370;2023-12-14T02:25:20;6.20;99.90
4602;DHT22;2313;48.552;9.370;2023-12-14T02:27:46;6.20;99.90
4602;DHT22;2313;48.552;9.370;2023-12-14T02:30:13;6.20;99.90
4602;DHT22;2313;48.552;9.370;2023-12-14T02:32:39;6.20;99.90
4602;DHT22;2313;48.552;9.370;2023-12-14T02:35:06;6.30;99.90
4602;DHT22;2313;48.552;9.370;2023-12-14T02:37:33;6.30;99.90
4602;DHT22;2313;48.552;9.370;2023-12-14T02:39:59;6.30;99.90
4602;DHT22;2313;48.552;9.370;2023-12-14T02:42:26;6.20;99.90
4602;DHT22;2313;48.552;9.370;2023-12-14T02:44:53;6.20;99.90
4602;DHT22;2313;48.552;9.370;2023-12-14T02:47:18;6.20;99.90
4602;DHT22;2313;48.552;9.370;2023-12-14T02:49:44;6.20;99.90
4602;DHT22;2313;48.552;9.370;2023-12-14T02:52:10;6.20;99.90
4602;DHT22;2313;48.552;9.370;2023-12-14T02:54:38;6.10;99.90
4602;DHT22;2313;48.552;9.370;2023-12-14T02:57:04;6.10;99.90
4602;DHT22;2313;48.552;9.370;2023-12-14T02:59:29;6.10;99.90
4602;DHT22;2313;48.552;9.370;2023-12-14T03:01:55;6.10;99.90
4602;DHT22;2313;48.552;9.370;2023-12-14T03:04:21;6.10;99.90
4602;DHT22;2313;48.552;9.370;2023-12-14T03:06:46;6.00;99.90
4602;DHT22;2313;48.552;9.370;2023-12-14T03:09:12;6.00;99.90
4602;DHT22;2313;48.552;9.370;2023-12-14T03:11:37;6.00;99.90
4602;DHT22;2313;48.552;9.370;2023-12-14T03:14:03;5.90;99.90
4602;DHT22;2313;48.552;9.370;2023-12-14T03:16:29;6.00;99.90
4602;DHT22;2313;48.552;9.370;2023-12-14T03:18:54;6.00;99.90
4602;DHT22;2313;48.552;9.370;2023-12-14T03:21:22;5.90;99.90
4602;DHT22;2313;48.552;9.370;2023-12-14T03:23:48;5.90;99.90
4602;DHT22;2313;48.552;9.370;2023-12-14T03:26:13;5.90;99.90
4602;DHT22;2313;48.552;9.370;2023-12-14T03:28:39;5.90;99.90
4602;DHT22;2313;48.552;9.370;2023-12-14T03:31:04;5.90;99.90
4602;DHT22;2313;48.552;9.370;2023-12-14T03:33:30;6.00;99.90
4602;DHT22;2313;48.552;9.370;2023-12-14T03:35:56;6.10;99.90
4602;DHT22;2313;48.552;9.370;2023-12-14T03:38:22;6.10;99.90
4602;DHT22;2313;48.552;9.370;2023-12-14T03:40:47;6.10;99.90
4602;DHT22;2313;48.552;9.370;2023-12-14T03:43:13;6.10;99.90
4602;DHT22;2313;48.552;9.370;2023-12-14T03:45:38;6.20;99.90
4602;DHT22;2313;48.552;9.370;2023-12-14T03:48:04;6.20;99.90
4602;DHT22;2313;48.552;9.370;2023-12-14T03:50:30;6.20;99.90
4602;DHT22;2313;48.552;9.370;2023-12-14T03:52:55;6.20;99.90
4602;DHT22;2313;48.552;9.370;2023-12-14T03:55:21;6.20;99.90
4602;DHT22;2313;48.552;9.370;2023-12-14T03:57:47;6.20;99.90
4602;DHT22;2313;48.552;9.370;2023-12-14T04:00:13;6.20;99.90
4602;DHT22;2313;48.552;9.370;2023-12-14T04:02:39;6.30;99.90
4602;DHT22;2313;48.552;9.370;2023-12-14T04:05:07;6.30;99.90
4602;DHT22;2313;48.552;9.370;2023-12-14T04:07:38;6.30;99.90
4602;DHT22;2313;48.552;9.370;2023-12-14T04:10:10;6.30;99.90
4602;DHT22;2313;48.552;9.370;2023-12-14T04:12:37;6.30;99.90
4602;DHT22;2313;48.552;9.370;2023-12-14T04:15:04;6.20;99.90
4602;DHT22;2313;48.552;9.370;2023-12-14T04:17:30;6.20;99.90
4602;DHT22;2313;48.552;9.370;2023-12-14T04:19:57;6.20;99.90
4602;DHT22;2313;48.552;9.370;2023-12-14T04:22:22;6.20;99.90
4602;DHT22;2313;48.552;9.370;2023-12-14T04:24:48;6.20;99.90
4602;DHT22;2313;48.552;9.370;2023-12-14T04:27:15;6.30;99.90
4602;DHT22;2313;48.552;9.370;2023-12-14T04:29:40;6.30;99.90
4602;DHT22;2313;48.552;9.370;2023-12-14T04:32:06;6.20;99.90
4602;DHT22;2313;48.552;9.370;2023-12-14T04:34:32;6.40;99.90
4602;DHT22;2313;48.552;9.370;2023-12-14T04:36:57;6.40;99.90
4602;DHT22;2313;48.552;9.370;2023-12-14T04:39:26;6.40;99.90
4602;DHT22;2313;48.552;9.370;2023-12-14T04:41:52;6.40;99.90
4602;DHT22;2313;48.552;9.370;2023-12-14T04:44:19;6.40;99.90
4602;DHT22;2313;48.552;9.370;2023-12-14T04:46:44;6.40;99.90
4602;DHT22;2313;48.552;9.370;2023-12-14T04:49:10;6.40;99.90
4602;DHT22;2313;48.552;9.370;2023-12-14T04:51:36;6.40;99.90
4602;DHT22;2313;48.552;9.370;2023-12-14T04:54:02;6.40;99.90
4602;DHT22;2313;48.552;9.370;2023-12-14T04:56:27;6.40;99.90
4602;DHT22;2313;48.552;9.370;2023-12-14T04:58:53;6.40;99.90
4602;DHT22;2313;48.552;9.370;2023-12-14T05:01:18;6.40;99.90
4602;DHT22;2313;48.552;9.370;2023-12-14T05:03:44;6.40;99.90
4602;DHT22;2313;48.552;9.370;2023-12-14T05:06:10;6.40;99.90
4602;DHT22;2313;48.552;9.370;2023-12-14T05:08:35;6.30;99.90
4602;DHT22;2313;48.552;9.370;2023-12-14T05:11:01;6.30;99.90
4602;DHT22;2313;48.552;9.370;2023-12-14T05:13:26;6.30;99.90
4602;DHT22;2313;48.552;9.370;2023-12-14T05:15:52;6.40;99.90
4602;DHT22;2313;48.552;9.370;2023-12-14T05:18:18;6.40;99.90
4602;DHT22;2313;48.552;9.370;2023-12-14T05:20:44;6.30;99.90
4602;DHT22;2313;48.552;9.370;2023-12-14T05:23:11;6.30;99.90
4602;DHT22;2313;48.552;9.370;2023-12-14T05:25:37;6.30;99.90
4602;DHT22;2313;48.552;9.370;2023-12-14T05:28:02;6.30;99.90
4602;DHT22;2313;48.552;9.370;2023-12-14T05:30:29;6.30;99.90
4602;DHT22;2313;48.552;9.370;2023-12-14T05:32:54;6.20;99.90
4602;DHT22;2313;48.552;9.370;2023-12-14T05:35:20;6.20;99.90
4602;DHT22;2313;48.552;9.370;2023-12-14T05:37:45;6.30;99.90
4602;DHT22;2313;48.552;9.370;2023-12-14T05:40:11;6.20;99.90
4602;DHT22;2313;48.552;9.370;2023-12-14T05:42:37;6.20;99.90
4602;DHT22;2313;48.552;9.370;2023-12-14T05:45:04;6.20;99.90
4602;DHT22;2313;48.552;9.370;2023-12-14T05:47:30;6.20;99.90
4602;DHT22;2313;48.552;9.370;2023-12-14T05:49:57;6.20;99.90
4602;DHT22;2313;48.552;9.370;2023-12-14T05:52:23;6.20;99.90
4602;DHT22;2313;48.552;9.370;2023-12-14T05:54:48;6.10;99.90
4602;DHT22;2313;48.552;9.370;2023-12-14T05:57:14;6.10;99.90
4602;DHT22;2313;48.552;9.370;2023-12-14T05:59:39;6.10;99.90
4602;DHT22;2313;48.552;9.370;2023-12-14T06:02:05;6.00;99.90
4602;DHT22;2313;48.552;9.370;2023-12-14T06:04:32;6.10;99.90
4602;DHT22;2313;48.552;9.370;2023-12-14T06:06:57;6.10;99.90
4602;DHT22;2313;48.552;9.370;2023-12-14T06:09:23;6.10;99.90
4602;DHT22;2313;48.552;9.370;2023-12-14T06:11:55;6.00;99.90
4602;DHT22;2313;48.552;9.370;2023-12-14T06:14:20;6.10;99.90
4602;DHT22;2313;48.552;9.370;2023-12-14T06:16:46;6.10;99.90
4602;DHT22;2313;48.552;9.370;2023-12-14T06:19:12;6.10;99.90
4602;DHT22;2313;48.552;9.370;2023-12-14T06:21:37;6.10;99.90
4602;DHT22;2313;48.552;9.370;2023-12-14T06:24:03;6.10;99.90
4602;DHT22;2313;48.552;9.370;2023-12-14T06:26:29;6.10;99.90
4602;DHT22;2313;48.552;9.370;2023-12-14T06:28:54;6.10;99.90
4602;DHT22;2313;48.552;9.370;2023-12-14T06:31:21;6.00;99.90
4602;DHT22;2313;48.552;9.370;2023-12-14T06:33:47;6.00;99.90
4602;DHT22;2313;48.552;9.370;2023-12-14T06:36:15;6.00;99.90
4602;DHT22;2313;48.552;9.370;2023-12-14T06:38:42;6.00;99.90
4602;DHT22;2313;48.552;9.370;2023-12-14T06:41:08;6.00;99.90
4602;DHT22;2313;48.552;9.370;2023-12-14T06:43:34;6.00;99.90
4602;DHT22;2313;48.552;9.370;2023-12-14T06:46:00;6.00;99.90
4602;DHT22;2313;48.552;9.370;2023-12-14T06:48:25;6.10;99.90
4602;DHT22;2313;48.552;9.370;2023-12-14T06:50:51;6.10;99.90
4602;DHT22;2313;48.552;9.370;2023-12-14T06:53:20;6.10;99.90
4602;DHT22;2313;48.552;9.370;2023-12-14T06:55:45;6.10;99.90
4602;DHT22;2313;48.552;9.370;2023-12-14T06:58:11;6.10;99.90
4602;DHT22;2313;48.552;9.370;2023-12-14T07:00:37;6.00;99.90
4602;DHT22;2313;48.552;9.370;2023-12-14T07:03:03;6.10;99.90
4602;DHT22;2313;48.552;9.370;2023-12-14T07:05:29;6.10;99.90
4602;DHT22;2313;48.552;9.370;2023-12-14T07:07:55;6.10;99.90
4602;DHT22;2313;48.552;9.370;2023-12-14T07:10:22;6.20;99.90
4602;DHT22;2313;48.552;9.370;2023-12-14T07:12:47;6.10;99.90
4602;DHT22;2313;48.552;9.370;2023-12-14T07:15:13;6.10;99.90
4602;DHT22;2313;48.552;9.370;2023-12-14T07:17:39;6.10;99.90
4602;DHT22;2313;48.552;9.370;2023-12-14T07:20:05;6.10;99.90
4602;DHT22;2313;48.552;9.370;2023-12-14T07:22:31;6.10;99.90
4602;DHT22;2313;48.552;9.370;2023-12-14T07:24:57;6.10;99.90
4602;DHT22;2313;48.552;9.370;2023-12-14T07:27:23;6.20;99.90
4602;DHT22;2313;48.552;9.370;2023-12-14T07:29:49;6.20;99.90
4602;DHT22;2313;48.552;9.370;2023-12-14T07:32:14;6.20;99.90
4602;DHT22;2313;48.552;9.370;2023-12-14T07:34:40;6.20;99.90
4602;DHT22;2313;48.552;9.370;2023-12-14T07:37:05;6.30;99.90
4602;DHT22;2313;48.552;9.370;2023-12-14T07:39:31;6.30;99.90
4602;DHT22;2313;48.552;9.370;2023-12-14T07:41:57;6.30;99.90
4602;DHT22;2313;48.552;9.370;2023-12-14T07:44:23;6.30;99.90
4602;DHT22;2313;48.552;9.370;2023-12-14T07:46:51;6.30;99.90
4602;DHT22;2313;48.552;9.370;2023-12-14T07:49:16;6.30;99.90
4602;DHT22;2313;48.552;9.370;2023-12-14T07:51:46;6.30;99.90
4602;DHT22;2313;48.552;9.370;2023-12-14T07:54:12;6.30;99.90
4602;DHT22;2313;48.552;9.370;2023-12-14T07:56:37;6.40;99.90
4602;DHT22;2313;48.552;9.370;2023-12-14T07:59:03;6.30;99.90
4602;DHT22;2313;48.552;9.370;2023-12-14T08:01:32;6.40;99.90
4602;DHT22;2313;48.552;9.370;2023-12-14T08:03:57;6.40;99.90
4602;DHT22;2313;48.552;9.370;2023-12-14T08:06:23;6.40;99.90
4602;DHT22;2313;48.552;9.370;2023-12-14T08:08:48;6.40;99.90
4602;DHT22;2313;48.552;9.370;2023-12-14T08:11:14;6.20;99.90
4602;DHT22;2313;48.552;9.370;2023-12-14T08:13:40;6.30;99.90
4602;DHT22;2313;48.552;9.370;2023-12-14T08:16:07;6.30;99.90
4602;DHT22;2313;48.552;9.370;2023-12-14T08:18:32;6.30;99.90
4602;DHT22;2313;48.552;9.370;2023-12-14T08:20:58;6.30;99.90
4602;DHT22;2313;48.552;9.370;2023-12-14T08:23:24;6.30;99.90
4602;DHT22;2313;48.552;9.370;2023-12-14T08:25:53;6.30;99.90
4602;DHT22;2313;48.552;9.370;2023-12-14T08:28:22;6.30;99.90
4602;DHT22;2313;48.552;9.370;2023-12-14T08:30:48;6.40;99.90
4602;DHT22;2313;48.552;9.370;2023-12-14T08:33:13;6.40;99.90
4602;DHT22;2313;48.552;9.370;2023-12-14T08:35:39;6.50;99.90
4602;DHT22;2313;48.552;9.370;2023-12-14T08:38:05;6.50;99.90
4602;DHT22;2313;48.552;9.370;2023-12-14T08:40:30;6.40;99.90
4602;DHT22;2313;48.552;9.370;2023-12-14T08:42:56;6.50;99.90
4602;DHT22;2313;48.552;9.370;2023-12-14T08:45:22;6.40;99.90
4602;DHT22;2313;48.552;9.370;2023-12-14T08:47:48;6.50;99.90
4602;DHT22;2313;48.552;9.370;2023-12-14T08:50:13;6.50;99.90
4602;DHT22;2313;48.552;9.370;2023-12-14T08:52:39;6.60;99.90
4602;DHT22;2313;48.552;9.370;2023-12-14T08:55:05;6.70;99.90
4602;DHT22;2313;48.552;9.370;2023-12-14T08:57:31;6.70;99.90
4602;DHT22;2313;48.552;9.370;2023-12-14T08:59:56;6.70;99.90
4602;DHT22;2313;48.552;9.370;2023-12-14T09:02:22;6.80;99.90
4602;DHT22;2313;48.552;9.370;2023-12-14T09:04:48;6.90;99.90
4602;DHT22;2313;48.552;9.370;2023-12-14T09:07:13;6.90;99.90
4602;DHT22;2313;48.552;9.370;2023-12-14T09:09:39;7.10;99.90
4602;DHT22;2313;48.552;9.370;2023-12-14T09:12:07;7.10;99.90
4602;DHT22;2313;48.552;9.370;2023-12-14T09:14:33;7.20;99.90
4602;DHT22;2313;48.552;9.370;2023-12-14T09:16:59;7.40;99.90
4602;DHT22;2313;48.552;9.370;2023-12-14T09:19:24;7.50;99.90
4602;DHT22;2313;48.552;9.370;2023-12-14T09:21:50;7.60;99.90
4602;DHT22;2313;48.552;9.370;2023-12-14T09:24:15;7.50;99.90
4602;DHT22;2313;48.552;9.370;2023-12-14T09:26:41;7.40;99.90
4602;DHT22;2313;48.552;9.370;2023-12-14T09:29:07;7.40;99.90
4602;DHT22;2313;48.552;9.370;2023-12-14T09:31:32;7.40;99.90
4602;DHT22;2313;48.552;9.370;2023-12-14T09:33:58;7.30;99.90
4602;DHT22;2313;48.552;9.370;2023-12-14T09:36:23;7.40;99.90
4602;DHT22;2313;48.552;9.370;2023-12-14T09:38:49;7.40;99.90
4602;DHT22;2313;48.552;9.370;2023-12-14T09:41:15;7.40;99.90
4602;DHT22;2313;48.552;9.370;2023-12-14T09:43:40;7.50;99.90
4602;DHT22;2313;48.552;9.370;2023-12-14T09:46:07;7.50;99.90
4602;DHT22;2313;48.552;9.370;2023-12-14T09:48:33;7.60;99.90
4602;DHT22;2313;48.552;9.370;2023-12-14T09:50:59;7.60;99.90
4602;DHT22;2313;48.552;9.370;2023-12-14T09:53:24;7.60;99.90
4602;DHT22;2313;48.552;9.370;2023-12-14T09:55:50;7.70;99.90
4602;DHT22;2313;48.552;9.370;2023-12-14T09:58:16;7.80;99.90
4602;DHT22;2313;48.552;9.370;2023-12-14T10:00:41;7.90;99.90
4602;DHT22;2313;48.552;9.370;2023-12-14T10:03:22;8.00;99.90
4602;DHT22;2313;48.552;9.370;2023-12-14T10:05:49;8.10;99.90
4602;DHT22;2313;48.552;9.370;2023-12-14T10:08:16;8.30;99.90
4602;DHT22;2313;48.552;9.370;2023-12-14T10:10:42;8.60;99.90
4602;DHT22;2313;48.552;9.370;2023-12-14T10:13:09;8.90;99.90
4602;DHT22;2313;48.552;9.370;2023-12-14T10:15:45;8.90;99.90
4602;DHT22;2313;48.552;9.370;2023-12-14T10:18:12;8.80;99.90
4602;DHT22;2313;48.552;9.370;2023-12-14T10:20:38;8.70;99.90
4602;DHT22;2313;48.552;9.370;2023-12-14T10:23:05;8.60;99.90
4602;DHT22;2313;48.552;9.370;2023-12-14T10:25:32;8.40;99.90
4602;DHT22;2313;48.552;9.370;2023-12-14T10:27:58;8.20;99.90
4602;DHT22;2313;48.552;9.370;2023-12-14T10:30:25;8.10;99.90
4602;DHT22;2313;48.552;9.370;2023-12-14T10:32:53;8.10;99.90
4602;DHT22;2313;48.552;9.370;2023-12-14T10:35:19;8.00;99.90
4602;DHT22;2313;48.552;9.370;2023-12-14T10:37:51;8.00;99.90
4602;DHT22;2313;48.552;9.370;2023-12-14T10:40:17;8.00;99.90
4602;DHT22;2313;48.552;9.370;2023-12-14T10:42:44;8.00;99.90
4602;DHT22;2313;48.552;9.370;2023-12-14T10:45:12;8.00;99.90
4602;DHT22;2313;48.552;9.370;2023-12-14T10:47:43;7.90;99.90
4602;DHT22;2313;48.552;9.370;2023-12-14T10:50:10;7.80;99.90
4602;DHT22;2313;48.552;9.370;2023-12-14T10:52:40;7.80;99.90
4602;DHT22;2313;48.552;9.370;2023-12-14T10:55:30;7.80;99.90
4602;DHT22;2313;48.552;9.370;2023-12-14T10:57:53;7.80;99.90
4602;DHT22;2313;48.552;9.370;2023-12-14T11:00:19;7.80;99.90
4602;DHT22;2313;48.552;9.370;2023-12-14T11:02:48;7.80;99.90
4602;DHT22;2313;48.552;9.370;2023-12-14T11:05:15;7.90;99.90
4602;DHT22;2313;48.552;9.370;2023-12-14T11:07:53;8.00;99.90
4602;DHT22;2313;48.552;9.370;2023-12-14T11:10:39;8.10;99.90
4602;DHT22;2313;48.552;9.370;2023-12-14T11:13:10;8.20;99.90
4602;DHT22;2313;48.552;9.370;2023-12-14T11:15:37;8.40;99.90
4602;DHT22;2313;48.552;9.370;2023-12-14T11:20:55;8.70;99.90
4602;DHT22;2313;48.552;9.370;2023-12-14T11:26:00;8.90;99.90
4602;DHT22;2313;48.552;9.370;2023-12-14T11:28:26;9.10;99.90
4602;DHT22;2313;48.552;9.370;2023-12-14T11:30:52;9.00;99.90
4602;DHT22;2313;48.552;9.370;2023-12-14T11:33:18;8.80;99.90
4602;DHT22;2313;48.552;9.370;2023-12-14T11:35:43;8.70;99.90
4602;DHT22;2313;48.552;9.370;2023-12-14T11:38:09;8.50;99.90
4602;DHT22;2313;48.552;9.370;2023-12-14T11:40:42;9.10;99.90
4602;DHT22;2313;48.552;9.370;2023-12-14T11:43:08;10.70;99.90
4602;DHT22;2313;48.552;9.370;2023-12-14T11:45:39;11.70;99.90
4602;DHT22;2313;48.552;9.370;2023-12-14T11:48:07;11.80;99.90
4602;DHT22;2313;48.552;9.370;2023-12-14T11:50:36;12.30;99.90
4602;DHT22;2313;48.552;9.370;2023-12-14T11:53:02;12.70;99.90
4602;DHT22;2313;48.552;9.370;2023-12-14T11:55:29;12.70;99.90
4602;DHT22;2313;48.552;9.370;2023-12-14T11:57:58;12.50;99.90
4602;DHT22;2313;48.552;9.370;2023-12-14T12:00:25;12.20;99.90
4602;DHT22;2313;48.552;9.370;2023-12-14T12:02:52;11.70;99.90
4602;DHT22;2313;48.552;9.370;2023-12-14T12:05:18;11.30;99.90
4602;DHT22;2313;48.552;9.370;2023-12-14T12:07:45;11.00;99.90
4602;DHT22;2313;48.552;9.370;2023-12-14T12:10:11;10.80;99.90
4602;DHT22;2313;48.552;9.370;2023-12-14T12:12:37;10.70;99.90
4602;DHT22;2313;48.552;9.370;2023-12-14T12:15:03;10.50;99.90
4602;DHT22;2313;48.552;9.370;2023-12-14T12:17:29;10.30;99.90
4602;DHT22;2313;48.552;9.370;2023-12-14T12:19:57;10.20;99.90
4602;DHT22;2313;48.552;9.370;2023-12-14T12:22:23;10.20;99.90
4602;DHT22;2313;48.552;9.370;2023-12-14T12:24:48;10.20;99.90
4602;DHT22;2313;48.552;9.370;2023-12-14T12:27:14;10.10;99.90
4602;DHT22;2313;48.552;9.370;2023-12-14T12:29:40;10.00;99.90
4602;DHT22;2313;48.552;9.370;2023-12-14T12:32:05;9.90;99.90
4602;DHT22;2313;48.552;9.370;2023-12-14T12:34:31;9.70;99.90
4602;DHT22;2313;48.552;9.370;2023-12-14T12:36:56;9.50;99.90
4602;DHT22;2313;48.552;9.370;2023-12-14T12:39:23;9.30;99.90
4602;DHT22;2313;48.552;9.370;2023-12-14T12:41:48;9.30;99.90
4602;DHT22;2313;48.552;9.370;2023-12-14T12:44:14;9.20;99.90
4602;DHT22;2313;48.552;9.370;2023-12-14T12:46:39;9.10;99.90
4602;DHT22;2313;48.552;9.370;2023-12-14T12:49:06;9.00;99.90
4602;DHT22;2313;48.552;9.370;2023-12-14T12:51:32;9.00;99.90
4602;DHT22;2313;48.552;9.370;2023-12-14T12:53:58;8.90;99.90
4602;DHT22;2313;48.552;9.370;2023-12-14T12:56:26;8.90;99.90
4602;DHT22;2313;48.552;9.370;2023-12-14T12:58:52;8.80;99.90
4602;DHT22;2313;48.552;9.370;2023-12-14T13:01:22;8.80;99.90
4602;DHT22;2313;48.552;9.370;2023-12-14T13:03:53;8.90;99.90
4602;DHT22;2313;48.552;9.370;2023-12-14T13:06:18;8.90;99.90
4602;DHT22;2313;48.552;9.370;2023-12-14T13:08:44;8.80;99.90
4602;DHT22;2313;48.552;9.370;2023-12-14T13:11:10;8.80;99.90
4602;DHT22;2313;48.552;9.370;2023-12-14T13:13:35;8.80;99.90
4602;DHT22;2313;48.552;9.370;2023-12-14T13:16:01;8.80;99.90
4602;DHT22;2313;48.552;9.370;2023-12-14T13:18:27;8.80;99.90
4602;DHT22;2313;48.552;9.370;2023-12-14T13:20:52;8.90;99.90
4602;DHT22;2313;48.552;9.370;2023-12-14T13:23:18;8.90;99.90
4602;DHT22;2313;48.552;9.370;2023-12-14T13:25:44;8.80;99.90
4602;DHT22;2313;48.552;9.370;2023-12-14T13:28:10;8.70;99.90
4602;DHT22;2313;48.552;9.370;2023-12-14T13:30:36;8.70;99.90
4602;DHT22;2313;48.552;9.370;2023-12-14T13:33:01;8.70;99.90
4602;DHT22;2313;48.552;9.370;2023-12-14T13:35:29;8.70;99.90
4602;DHT22;2313;48.552;9.370;2023-12-14T13:37:55;8.70;99.90
4602;DHT22;2313;48.552;9.370;2023-12-14T13:40:20;8.60;99.90
4602;DHT22;2313;48.552;9.370;2023-12-14T13:42:46;8.60;99.90
4602;DHT22;2313;48.552;9.370;2023-12-14T13:45:12;8.50;99.90
4602;DHT22;2313;48.552;9.370;2023-12-14T13:47:37;8.50;99.90
4602;DHT22;2313;48.552;9.370;2023-12-14T13:50:03;8.40;99.90
4602;DHT22;2313;48.552;9.370;2023-12-14T13:52:29;8.30;99.90
4602;DHT22;2313;48.552;9.370;2023-12-14T13:54:55;8.30;99.90
4602;DHT22;2313;48.552;9.370;2023-12-14T13:57:22;8.30;99.90
4602;DHT22;2313;48.552;9.370;2023-12-14T13:59:48;8.20;99.90
4602;DHT22;2313;48.552;9.370;2023-12-14T14:02:13;8.10;99.90
4602;DHT22;2313;48.552;9.370;2023-12-14T14:04:39;8.10;99.90
4602;DHT22;2313;48.552;9.370;2023-12-14T14:07:04;8.00;99.90
4602;DHT22;2313;48.552;9.370;2023-12-14T14:09:30;8.00;99.90
4602;DHT22;2313;48.552;9.370;2023-12-14T14:11:56;8.00;99.90
4602;DHT22;2313;48.552;9.370;2023-12-14T14:14:21;7.90;99.90
4602;DHT22;2313;48.552;9.370;2023-12-14T14:16:48;7.80;99.90
4602;DHT22;2313;48.552;9.370;2023-12-14T14:19:14;7.70;99.90
4602;DHT22;2313;48.552;9.370;2023-12-14T14:21:40;7.60;99.90
4602;DHT22;2313;48.552;9.370;2023-12-14T14:24:06;7.50;99.90
4602;DHT22;2313;48.552;9.370;2023-12-14T14:26:32;7.40;99.90
4602;DHT22;2313;48.552;9.370;2023-12-14T14:28:57;7.50;99.90
4602;DHT22;2313;48.552;9.370;2023-12-14T14:31:28;7.30;99.90
4602;DHT22;2313;48.552;9.370;2023-12-14T14:34:00;7.30;99.90
4602;DHT22;2313;48.552;9.370;2023-12-14T14:36:26;7.20;99.90
4602;DHT22;2313;48.552;9.370;2023-12-14T14:38:51;7.10;99.90
4602;DHT22;2313;48.552;9.370;2023-12-14T14:41:19;7.10;99.90
4602;DHT22;2313;48.552;9.370;2023-12-14T14:43:45;7.00;99.90
4602;DHT22;2313;48.552;9.370;2023-12-14T14:46:10;7.00;99.90
4602;DHT22;2313;48.552;9.370;2023-12-14T14:48:37;7.00;99.90
4602;DHT22;2313;48.552;9.370;2023-12-14T14:51:03;6.90;99.90
4602;DHT22;2313;48.552;9.370;2023-12-14T14:53:29;6.90;99.90
4602;DHT22;2313;48.552;9.370;2023-12-14T14:55:55;7.00;99.90
4602;DHT22;2313;48.552;9.370;2023-12-14T14:58:21;6.80;99.90
4602;DHT22;2313;48.552;9.370;2023-12-14T15:00:47;6.80;99.90
4602;DHT22;2313;48.552;9.370;2023-12-14T15:03:13;6.80;99.90
4602;DHT22;2313;48.552;9.370;2023-12-14T15:05:39;6.80;99.90
4602;DHT22;2313;48.552;9.370;2023-12-14T15:08:05;6.80;99.90
4602;DHT22;2313;48.552;9.370;2023-12-14T15:10:32;6.80;99.90
4602;DHT22;2313;48.552;9.370;2023-12-14T15:12:58;6.70;99.90
4602;DHT22;2313;48.552;9.370;2023-12-14T15:15:23;6.80;99.90
4602;DHT22;2313;48.552;9.370;2023-12-14T15:17:49;6.80;99.90
4602;DHT22;2313;48.552;9.370;2023-12-14T15:20:14;6.70;99.90
4602;DHT22;2313;48.552;9.370;2023-12-14T15:22:40;6.70;99.90
4602;DHT22;2313;48.552;9.370;2023-12-14T15:25:06;6.70;99.90
4602;DHT22;2313;48.552;9.370;2023-12-14T15:27:31;6.70;99.90
4602;DHT22;2313;48.552;9.370;2023-12-14T15:29:58;6.70;99.90
4602;DHT22;2313;48.552;9.370;2023-12-14T15:32:24;6.70;99.90
4602;DHT22;2313;48.552;9.370;2023-12-14T15:34:50;6.70;99.90
4602;DHT22;2313;48.552;9.370;2023-12-14T15:37:16;6.70;99.90
4602;DHT22;2313;48.552;9.370;2023-12-14T15:39:42;6.80;99.90
4602;DHT22;2313;48.552;9.370;2023-12-14T15:42:16;6.70;99.90
4602;DHT22;2313;48.552;9.370;2023-12-14T15:44:42;6.60;99.90
4602;DHT22;2313;48.552;9.370;2023-12-14T15:47:10;6.70;99.90
4602;DHT22;2313;48.552;9.370;2023-12-14T15:49:36;6.70;99.90
4602;DHT22;2313;48.552;9.370;2023-12-14T15:52:02;6.60;99.90
4602;DHT22;2313;48.552;9.370;2023-12-14T15:54:27;6.70;99.90
4602;DHT22;2313;48.552;9.370;2023-12-14T15:56:53;6.70;99.90
4602;DHT22;2313;48.552;9.370;2023-12-14T15:59:18;6.70;99.90
4602;DHT22;2313;48.552;9.370;2023-12-14T16:01:44;6.70;99.90
4602;DHT22;2313;48.552;9.370;2023-12-14T16:04:10;6.70;99.90
4602;DHT22;2313;48.552;9.370;2023-12-14T16:06:35;6.60;99.90
4602;DHT22;2313;48.552;9.370;2023-12-14T16:09:01;6.70;99.90
4602;DHT22;2313;48.552;9.370;2023-12-14T16:11:28;6.70;99.90
4602;DHT22;2313;48.552;9.370;2023-12-14T16:13:54;6.70;99.90
4602;DHT22;2313;48.552;9.370;2023-12-14T16:16:22;6.70;99.90